Terminal Aerodrome Forecast
Issued by NWS Norman, OK

Home | Current Version | Previous Version | Text Only | Print | Product List | Glossary On
Versions: 1 2 3 4 5 6 7 8 9 10 11 12 13 14 15 16 17 18 19 20 21 22 23 24 25 26 27 28 29 30 31 32
000
FTUS44 KOUN 252320
TAFOKC
TAF
KOKC 252320Z 2600/2624 12013KT P6SM FEW090 SCT100 BKN120
      TEMPO 2600/2602 12020G35KT
     FM260200 16009KT P6SM SCT120
     FM260800 14006KT 6SM BR BKN100
     FM261500 18013KT P6SM BKN025
      TEMPO 2620/2624 5SM -TSRA BKN015CB=

USA.gov is the U.S. government's official web portal to all federal, state and local government web resources and services.